Time;durP1;ratioP1;P1;durP2;ratioP2;P2;SDS_P1;SDS_P2;PMS_P1;PMS_P2;Temp;Humidity;BMP_temperature;BMP_pressure;BME280_temperature;BME280_humidity;BME280_pressure;Samples;Min_cycle;Max_cycle;Signal;HPM_P1;HPM_P2
2022/07/07 07:16:16;;;;;;;;;;;;;;;24.08;46.09;97505.44;5104716;22;1544488;-81
2022/07/07 07:18:19;;;;;;;;;;;;;;;24.28;46.18;97494.75;5151787;22;6628;-82
2022/07/07 07:20:22;;;;;;;;;;;;;;;24.47;46.03;97507.84;5151738;22;5826;-82
2022/07/07 07:22:26;;;;;;;;;;;;;;;24.60;45.82;97508.13;5151976;22;5822;-82
2022/07/07 07:24:29;;;;;;;;;;;;;;;24.70;45.67;97507.38;5151961;22;5821;-83
2022/07/07 07:26:32;;;;;;;;;;;;;;;24.77;45.15;97507.09;5152057;22;6460;-83
2022/07/07 07:28:36;;;;;;;;;;;;;;;24.80;45.08;97504.66;5151776;22;5826;-83
2022/07/07 07:30:39;;;;;;;;;;;;;;;24.83;45.35;97511.44;5152116;22;5928;-83
2022/07/07 07:32:44;;;;;;;;;;;;;;;24.79;45.14;97504.94;5150107;23;5750;-83
2022/07/07 07:34:47;;;;;;;;;;;;;;;24.74;45.25;97508.44;5151545;23;5830;-83
2022/07/07 07:36:50;;;;;;;;;;;;;;;24.75;45.35;97507.38;5151437;23;5834;-83
2022/07/07 07:38:52;;;;;;;;;;;;;;;24.73;45.42;97500.59;5151735;23;5823;-82
2022/07/07 07:40:55;;;;;;;;;;;;;;;24.78;45.34;97497.91;5151695;22;5814;-82
2022/07/07 07:42:58;;;;;;;;;;;;;;;24.81;44.76;97500.91;5151908;22;5830;-82
2022/07/07 07:45:11;;;;;;;;;;;;;;;24.85;44.60;97510.09;5151815;22;5802;-83
2022/07/07 07:47:14;;;;;;;;;;;;;;;24.86;44.85;97517.13;5151638;23;5818;-83
2022/07/07 07:49:18;;;;;;;;;;;;;;;24.86;45.07;97519.81;5152427;22;5797;-82
2022/07/07 07:51:21;;;;;;;;;;;;;;;24.86;45.01;97511.72;5152087;22;5822;-82
2022/07/07 07:53:24;;;;;;;;;;;;;;;24.81;44.61;97509.00;5150662;23;5754;-83
2022/07/07 07:55:30;;;;;;;;;;;;;;;24.79;44.93;97513.03;5152163;23;5822;-82
2022/07/07 07:57:33;;;;;;;;;;;;;;;24.78;44.90;97512.22;5152424;23;5060;-84
2022/07/07 07:59:36;;;;;;;;;;;;;;;24.74;45.11;97518.44;5152343;22;5826;-83
2022/07/07 08:01:40;;;;;;;;;;;;;;;24.74;44.97;97513.03;5152415;22;6460;-83
2022/07/07 08:03:43;;;;;;;;;;;;;;;24.74;45.08;97513.03;5152431;23;5771;-83
2022/07/07 08:05:47;;;;;;;;;;;;;;;24.74;45.23;97505.75;5150882;22;5834;-83
2022/07/07 08:07:50;;;;;;;;;;;;;;;24.76;44.64;97511.69;5151859;23;5932;-83
2022/07/07 08:09:53;;;;;;;;;;;;;;;24.78;44.99;97509.53;5152142;22;5826;-83
2022/07/07 08:11:56;;;;;;;;;;;;;;;24.77;45.27;97501.69;5150289;23;5913;-83
2022/07/07 08:13:59;;;;;;;;;;;;;;;24.74;45.26;97496.81;5152242;23;5830;-83
2022/07/07 08:16:02;;;;;;;;;;;;;;;24.75;45.13;97495.75;5149075;22;5937;-83
2022/07/07 08:18:05;;;;;;;;;;;;;;;24.73;45.00;97490.59;5146332;23;5818;-83
2022/07/07 08:20:09;;;;;;;;;;;;;;;24.73;45.24;97489.78;5146501;23;5825;-83
2022/07/07 08:22:13;;;;;;;;;;;;;;;24.71;45.02;97483.84;5144979;23;5648;-84
2022/07/07 08:24:17;;;;;;;;;;;;;;;24.72;45.17;97488.97;5146833;23;5845;-83
2022/07/07 08:26:20;;;;;;;;;;;;;;;24.71;45.12;97492.75;5144581;23;5875;-83
2022/07/07 08:28:23;;;;;;;;;;;;;;;24.72;44.79;97493.56;5146468;23;5830;-83
2022/07/07 08:30:26;;;;;;;;;;;;;;;24.64;45.19;97494.91;5146422;23;5847;-83
2022/07/07 08:32:29;;;;;;;;;;;;;;;24.66;44.99;97490.03;5146252;23;5822;-83
2022/07/07 08:34:32;;;;;;;;;;;;;;;24.64;44.94;97492.19;5145899;23;5825;-83
2022/07/07 08:36:41;;;;;;;;;;;;;;;24.67;44.84;97491.66;5146278;23;5825;-83
2022/07/07 08:38:46;;;;;;;;;;;;;;;24.70;44.95;97479.50;5146448;23;5877;-83
2022/07/07 08:40:49;;;;;;;;;;;;;;;24.75;44.93;97488.44;5146040;23;5818;-83
2022/07/07 08:42:52;;;;;;;;;;;;;;;24.78;45.24;97493.31;5146206;23;5818;-83
2022/07/07 08:44:55;;;;;;;;;;;;;;;24.78;45.01;97493.31;5146094;23;5965;-83
2022/07/07 08:47:00;;;;;;;;;;;;;;;24.76;44.95;97498.16;5146126;23;5846;-83
2022/07/07 08:49:03;;;;;;;;;;;;;;;24.76;44.92;97498.16;5144272;23;5755;-83
2022/07/07 08:51:07;;;;;;;;;;;;;;;24.79;44.67;97497.63;5145856;23;5814;-83
2022/07/07 08:53:13;;;;;;;;;;;;;;;24.76;44.57;97495.47;5146140;23;5832;-83
2022/07/07 08:55:23;;;;;;;;;;;;;;;24.76;44.85;97491.94;5146129;23;5930;-83
2022/07/07 08:57:26;;;;;;;;;;;;;;;24.80;44.96;97487.63;5146347;23;5832;-82
2022/07/07 08:59:29;;;;;;;;;;;;;;;24.84;44.98;97496.84;5146065;23;5829;-81
2022/07/07 09:01:39;;;;;;;;;;;;;;;24.83;44.80;97500.63;5146349;23;5829;-83
2022/07/07 09:03:42;;;;;;;;;;;;;;;24.81;44.67;97489.28;5146556;23;5822;-83
2022/07/07 09:05:45;;;;;;;;;;;;;;;24.79;44.99;97489.50;5143324;23;5806;-81
2022/07/07 09:07:50;;;;;;;;;;;;;;;24.79;44.71;97494.94;5146205;23;5961;-82
2022/07/07 09:09:53;;;;;;;;;;;;;;;24.76;44.85;97500.88;5146475;23;5836;-82
2022/07/07 09:12:01;;;;;;;;;;;;;;;24.77;44.98;97505.19;5146043;23;5830;-82
2022/07/07 09:14:11;;;;;;;;;;;;;;;24.79;44.60;97505.75;5146476;23;5821;-82
2022/07/07 09:16:15;;;;;;;;;;;;;;;24.79;45.00;97510.34;5145800;23;5818;-82
2022/07/07 09:18:37;;;;;;;;;;;;;;;24.78;44.57;97514.94;5147363;23;5743;-82
2022/07/07 09:20:39;;;;;;;;;;;;;;;24.80;44.64;97510.06;5148366;23;6799;-82
2022/07/07 09:22:44;;;;;;;;;;;;;;;24.78;44.87;97506.81;5146844;23;5741;-82
2022/07/07 09:24:55;;;;;;;;;;;;;;;24.80;44.85;97507.38;5149239;23;7785;-83
2022/07/07 09:26:58;;;;;;;;;;;;;;;24.82;44.81;97507.94;5149126;23;5049;-83
2022/07/07 09:29:02;;;;;;;;;;;;;;;24.86;44.43;97505.50;5148795;23;5731;-83
2022/07/07 09:31:06;;;;;;;;;;;;;;;24.91;44.40;97509.00;5149210;23;5862;-83
2022/07/07 09:33:11;;;;;;;;;;;;;;;24.91;44.53;97511.72;5149023;23;5711;-83
2022/07/07 09:39:59;;;;;;;;;;;;;;;25.00;44.30;97513.91;5149060;23;5727;-83
2022/07/07 09:42:23;;;;;;;;;;;;;;;25.00;44.41;97516.59;5149637;23;6255;-83
2022/07/07 09:44:29;;;;;;;;;;;;;;;25.02;44.27;97509.06;5149084;23;5734;-83
2022/07/07 09:46:33;;;;;;;;;;;;;;;25.05;44.43;97503.94;5147512;23;5748;-82
2022/07/07 09:48:37;;;;;;;;;;;;;;;25.10;44.27;97495.00;5149132;23;5858;-83
2022/07/07 09:50:40;;;;;;;;;;;;;;;25.12;44.19;97490.94;5149376;23;5731;-83
2022/07/07 09:52:47;;;;;;;;;;;;;;;25.18;44.13;97502.59;5149050;23;5719;-83
2022/07/07 09:54:51;;;;;;;;;;;;;;;25.24;44.24;97507.72;5149028;23;5057;-83
2022/07/07 09:56:54;;;;;;;;;;;;;;;25.30;44.16;97516.69;5149060;23;5727;-83
2022/07/07 09:58:58;;;;;;;;;;;;;;;25.33;44.09;97516.13;5147386;23;5640;-83
2022/07/07 10:01:02;;;;;;;;;;;;;;;25.33;44.20;97509.91;5149367;23;5739;-83
2022/07/07 10:03:06;;;;;;;;;;;;;;;25.33;43.97;97510.72;5148979;23;5806;-83
2022/07/07 10:05:09;;;;;;;;;;;;;;;25.36;43.88;97512.88;5148336;23;5715;-83
2022/07/07 10:07:15;;;;;;;;;;;;;;;25.38;44.12;97512.63;5147311;23;5674;-83
2022/07/07 10:09:19;;;;;;;;;;;;;;;25.39;43.82;97512.34;5147816;23;5728;-83
2022/07/07 10:11:23;;;;;;;;;;;;;;;25.41;43.63;97507.47;5149062;23;5739;-84
2022/07/07 10:13:30;;;;;;;;;;;;;;;25.43;43.80;97502.59;5149168;23;5782;-83
2022/07/07 10:15:34;;;;;;;;;;;;;;;25.45;43.59;97503.13;5148569;23;5785;-83
2022/07/07 10:17:39;;;;;;;;;;;;;;;25.49;43.50;97512.34;5148840;23;6470;-83
2022/07/07 10:19:42;;;;;;;;;;;;;;;25.55;43.69;97518.56;5148804;23;5751;-83
2022/07/07 10:21:47;;;;;;;;;;;;;;;25.57;43.19;97516.41;5148714;23;5784;-83
2022/07/07 10:23:51;;;;;;;;;;;;;;;25.58;43.35;97518.03;5148724;23;5718;-83
2022/07/07 10:26:01;;;;;;;;;;;;;;;25.59;43.04;97516.13;5148017;23;5735;-83
2022/07/07 10:28:04;;;;;;;;;;;;;;;25.61;42.97;97522.09;5144842;23;5985;-84
2022/07/07 10:30:10;;;;;;;;;;;;;;;25.64;42.99;97526.97;5145299;23;5805;-83
2022/07/07 10:32:15;;;;;;;;;;;;;;;25.67;43.37;97523.69;5145437;23;5830;-83
2022/07/07 10:34:19;;;;;;;;;;;;;;;25.70;43.05;97512.34;5144886;23;5830;-84
2022/07/07 10:36:22;;;;;;;;;;;;;;;25.69;42.97;97516.97;5145059;23;7145;-83
2022/07/07 10:38:27;;;;;;;;;;;;;;;25.71;43.02;97527.50;5145054;23;5865;-83
2022/07/07 10:40:31;;;;;;;;;;;;;;;25.69;43.00;97519.66;5145401;23;5089;-83
2022/07/07 10:42:53;;;;;;;;;;;;;;;25.69;42.62;97524.25;5145340;23;5846;-83
2022/07/07 10:44:58;;;;;;;;;;;;;;;25.73;42.66;97517.25;5145208;23;5861;-83
2022/07/07 10:47:05;;;;;;;;;;;;;;;25.77;42.63;97512.91;5145490;23;5830;-83
2022/07/07 10:49:13;;;;;;;;;;;;;;;25.78;42.40;97511.81;5145704;23;5833;-83
2022/07/07 10:51:22;;;;;;;;;;;;;;;25.79;42.44;97514.25;5143728;23;5743;-83
2022/07/07 10:53:31;;;;;;;;;;;;;;;25.80;42.29;97512.34;5145615;23;5829;-84
2022/07/07 10:55:56;;;;;;;;;;;;;;;25.80;42.58;97512.34;5145628;23;5817;-83
2022/07/07 10:57:59;;;;;;;;;;;;;;;25.80;42.34;97515.84;5145396;23;5837;-83
2022/07/07 11:00:08;;;;;;;;;;;;;;;25.80;42.11;97499.59;5145460;23;5822;-83
2022/07/07 11:02:13;;;;;;;;;;;;;;;25.84;41.94;97510.72;5145400;23;5841;-82
2022/07/07 11:04:47;;;;;;;;;;;;;;;25.90;41.90;97506.09;5144772;23;7842;-83
2022/07/07 11:07:14;;;;;;;;;;;;;;;25.98;41.44;97500.94;5144481;23;5849;-82
2022/07/07 11:09:17;;;;;;;;;;;;;;;26.01;41.55;97503.09;5145562;23;5881;-84
2022/07/07 11:11:21;;;;;;;;;;;;;;;26.04;41.06;97505.25;5146340;23;5742;-83
2022/07/07 11:13:31;;;;;;;;;;;;;;;26.07;41.33;97504.72;5147892;23;5726;-83
2022/07/07 11:15:34;;;;;;;;;;;;;;;26.09;41.10;97499.00;5146441;23;5637;-84
2022/07/07 11:17:38;;;;;;;;;;;;;;;26.12;41.31;97496.56;5148658;23;5906;-84
2022/07/07 11:19:41;;;;;;;;;;;;;;;26.14;41.41;97493.56;5148775;23;5738;-84
2022/07/07 11:21:46;;;;;;;;;;;;;;;26.16;40.92;97490.56;5148185;23;5715;-84
2022/07/07 11:23:55;;;;;;;;;;;;;;;26.18;40.95;97488.44;5148829;23;5723;-84
2022/07/07 11:25:58;;;;;;;;;;;;;;;26.19;40.79;97481.91;5148754;23;5730;-84
2022/07/07 11:28:02;;;;;;;;;;;;;;;26.19;40.76;97485.44;5147323;23;5636;-84
2022/07/07 11:30:07;;;;;;;;;;;;;;;26.21;40.94;97477.03;5148432;23;7723;-84
2022/07/07 11:55:25;;;;;;;;;;;;;;;25.86;41.02;97478.75;4226367;27;1561851;-83
2022/07/07 11:57:30;;;;;;;;;;;;;;;26.07;40.44;97477.63;4250215;27;5604;-83
2022/07/07 11:59:33;;;;;;;;;;;;;;;26.22;40.25;97467.81;4250839;27;5597;-83
2022/07/07 12:01:38;;;;;;;;;;;;;;;26.33;40.17;97463.97;4249658;27;5604;-84
2022/07/07 12:03:41;;;;;;;;;;;;;;;26.44;40.32;97476.41;4263414;27;5748;-84
2022/07/07 12:05:47;;;;;;;;;;;;;;;26.48;40.15;97469.34;4254316;27;5601;-84
2022/07/07 12:07:54;;;;;;;;;;;;;;;26.54;39.95;97476.38;4249488;27;5743;-84
2022/07/07 12:09:58;;;;;;;;;;;;;;;26.62;40.07;97481.22;4256654;27;5710;-84
2022/07/07 12:12:05;;;;;;;;;;;;;;;26.63;39.82;97473.88;4254371;27;5592;-84
2022/07/07 12:14:11;;;;;;;;;;;;;;;26.66;39.65;97465.19;4262727;27;5600;-84
2022/07/07 12:16:14;;;;;;;;;;;;;;;26.70;39.62;97472.47;4258686;27;5629;-84
2022/07/07 12:18:23;;;;;;;;;;;;;;;26.74;39.32;97480.06;4264525;27;5578;-83
2022/07/07 12:20:26;;;;;;;;;;;;;;;26.79;39.28;97480.03;4264899;27;6242;-83
2022/07/07 12:22:35;;;;;;;;;;;;;;;26.85;39.36;97474.28;4265985;27;6263;-83
2022/07/07 12:24:41;;;;;;;;;;;;;;;26.89;39.32;97463.69;4265816;27;5676;-85
2022/07/07 12:27:17;;;;;;;;;;;;;;;26.99;39.15;97471.75;4262787;27;5579;-83
2022/07/07 12:29:21;;;;;;;;;;;;;;;27.06;38.78;97474.97;4265075;27;5640;-84
2022/07/07 12:31:26;;;;;;;;;;;;;;;27.07;39.01;97483.91;4265634;27;5678;-84
2022/07/07 12:33:36;;;;;;;;;;;;;;;27.05;38.65;97478.78;4265158;27;5156;-84
2022/07/07 12:35:40;;;;;;;;;;;;;;;27.06;38.88;97479.59;4265751;27;5578;-85
2022/07/07 12:37:45;;;;;;;;;;;;;;;27.06;38.59;97476.88;4265645;27;5753;-85
2022/07/07 12:39:51;;;;;;;;;;;;;;;27.10;38.79;97481.47;4264964;27;5586;-85
2022/07/07 12:41:55;;;;;;;;;;;;;;;27.09;38.46;97479.84;4246761;27;5632;-85
2022/07/07 12:44:15;;;;;;;;;;;;;;;27.07;38.46;97482.03;4265327;27;5391;-85
2022/07/07 12:46:39;;;;;;;;;;;;;;;27.06;38.53;97485.00;4201230;27;5623;-85
2022/07/07 12:48:48;;;;;;;;;;;;;;;27.07;38.75;97489.34;4265057;27;5692;-85
2022/07/07 12:50:52;;;;;;;;;;;;;;;27.08;38.65;97489.09;4265247;27;5581;-85
2022/07/07 12:53:00;;;;;;;;;;;;;;;27.10;38.54;97489.63;4265091;27;6334;-84
2022/07/07 12:55:09;;;;;;;;;;;;;;;27.08;38.50;97491.00;4229760;28;5596;-85
2022/07/07 12:57:15;;;;;;;;;;;;;;;27.04;38.42;97493.44;4250509;27;5609;-85
2022/07/07 12:59:21;;;;;;;;;;;;;;;27.02;38.53;97503.78;4238509;27;5608;-84
2022/07/07 13:01:27;;;;;;;;;;;;;;;27.03;38.40;97496.44;4241674;27;5601;-84
2022/07/07 13:03:32;;;;;;;;;;;;;;;27.02;38.41;97503.78;4251707;27;7643;-84
2022/07/07 13:05:35;;;;;;;;;;;;;;;26.98;38.62;97492.66;4251767;27;6288;-84
2022/07/07 13:07:38;;;;;;;;;;;;;;;26.98;38.30;97499.97;4253556;27;5595;-84
2022/07/07 13:09:42;;;;;;;;;;;;;;;26.98;38.58;97491.84;4253721;27;5705;-84
2022/07/07 13:11:49;;;;;;;;;;;;;;;26.96;38.27;97499.47;4235175;28;5504;-83
2022/07/07 13:13:53;;;;;;;;;;;;;;;26.96;38.04;97489.41;4253245;27;5589;-85
2022/07/07 13:16:17;;;;;;;;;;;;;;;26.97;38.06;97501.88;4242062;27;5679;-85
2022/07/07 13:18:26;;;;;;;;;;;;;;;27.02;38.24;97503.78;4244424;27;5680;-85
2022/07/07 13:20:33;;;;;;;;;;;;;;;27.04;38.20;97501.59;4223006;28;5734;-85
2022/07/07 13:22:36;;;;;;;;;;;;;;;27.07;37.70;97502.91;4235598;27;5600;-85
2022/07/07 13:24:43;;;;;;;;;;;;;;;27.11;37.35;97501.28;4234891;28;5614;-85
2022/07/07 13:26:47;;;;;;;;;;;;;;;27.11;36.97;97485.81;4241433;27;5724;-85
2022/07/07 13:28:51;;;;;;;;;;;;;;;27.21;37.20;97510.16;4252457;27;6474;-85
2022/07/07 13:30:55;;;;;;;;;;;;;;;27.21;36.79;97496.59;4253008;27;5594;-85
2022/07/07 13:33:02;;;;;;;;;;;;;;;27.20;36.65;97500.41;4230113;28;5627;-85
2022/07/07 13:35:06;;;;;;;;;;;;;;;27.16;36.72;97499.31;4236303;27;5687;-85
2022/07/07 13:37:09;;;;;;;;;;;;;;;27.11;36.97;97502.09;4235704;27;5687;-85
2022/07/07 13:39:13;;;;;;;;;;;;;;;27.03;36.63;97488.31;4249718;27;5661;-85
2022/07/07 13:41:16;;;;;;;;;;;;;;;27.15;36.52;97514.00;4250111;27;5697;-85
2022/07/07 13:43:20;;;;;;;;;;;;;;;27.14;36.66;97496.09;4240609;27;5703;-85
2022/07/07 13:45:23;;;;;;;;;;;;;;;27.22;36.27;97502.81;4231608;28;6310;-85
2022/07/07 13:47:26;;;;;;;;;;;;;;;27.24;36.17;97496.00;4245118;27;5582;-86
2022/07/07 13:49:31;;;;;;;;;;;;;;;27.26;36.19;97507.38;4223862;28;5525;-86
2022/07/07 13:51:34;;;;;;;;;;;;;;;27.31;35.97;97511.19;4243683;27;5708;-85
2022/07/07 13:53:39;;;;;;;;;;;;;;;27.21;36.02;97496.59;4233993;28;5509;-85
2022/07/07 13:56:03;;;;;;;;;;;;;;;27.26;36.18;97506.59;4238737;27;5655;-86
2022/07/07 13:58:07;;;;;;;;;;;;;;;27.24;35.85;97506.06;4232302;28;5620;-86
2022/07/07 14:00:12;;;;;;;;;;;;;;;27.22;35.94;97503.63;4235752;28;5617;-86
2022/07/07 14:02:18;;;;;;;;;;;;;;;27.20;35.78;97486.03;4235228;28;5604;-86
2022/07/07 14:04:31;;;;;;;;;;;;;;;27.22;35.73;97498.22;4227015;28;5532;-86
2022/07/07 14:06:34;;;;;;;;;;;;;;;27.26;35.69;97501.16;4233193;28;5624;-86
2022/07/07 14:08:37;;;;;;;;;;;;;;;27.26;35.98;97504.69;4234446;28;5679;-86
2022/07/07 14:10:41;;;;;;;;;;;;;;;27.17;35.69;97495.50;4235810;28;5687;-86
2022/07/07 14:12:45;;;;;;;;;;;;;;;27.16;35.79;97487.66;4235829;28;5687;-86
2022/07/07 14:14:48;;;;;;;;;;;;;;;27.31;35.62;97501.13;4234357;28;7652;-86
2022/07/07 14:16:54;;;;;;;;;;;;;;;27.28;35.82;97491.63;4235756;28;5707;-86
2022/07/07 14:18:58;;;;;;;;;;;;;;;27.34;35.39;97494.31;4233802;28;5608;-85
2022/07/07 14:21:03;;;;;;;;;;;;;;;27.31;35.62;97511.19;4235351;28;5633;-86
2022/07/07 14:23:06;;;;;;;;;;;;;;;27.23;35.50;97499.81;4230747;28;5720;-86
2022/07/07 14:25:12;;;;;;;;;;;;;;;27.25;35.67;97503.06;4231725;27;6569;-85
2022/07/07 14:27:15;;;;;;;;;;;;;;;27.34;35.64;97518.75;4229563;27;5612;-75
2022/07/07 14:29:18;;;;;;;;;;;;;;;27.34;35.54;97516.03;4222655;28;5539;-76
2022/07/07 14:31:21;;;;;;;;;;;;;;;27.34;35.52;97524.19;4223289;28;6397;-74
2022/07/07 14:33:25;;;;;;;;;;;;;;;27.31;35.37;97522.03;4230205;28;5670;-74
2022/07/07 14:35:29;;;;;;;;;;;;;;;27.32;35.41;97520.94;4234168;28;5620;-75
2022/07/07 14:37:33;;;;;;;;;;;;;;;27.29;35.46;97511.44;4224147;28;5672;-74
2022/07/07 14:39:36;;;;;;;;;;;;;;;27.31;35.08;97516.59;4228862;28;5858;-74
2022/07/07 14:41:39;;;;;;;;;;;;;;;27.34;35.08;97516.03;4234026;28;5616;-75
2022/07/07 14:43:43;;;;;;;;;;;;;;;27.34;35.18;97511.41;4234479;28;5688;-75
2022/07/07 14:45:46;;;;;;;;;;;;;;;27.33;34.97;97498.13;4231518;27;5620;-75
2022/07/07 14:47:52;;;;;;;;;;;;;;;27.36;35.10;97508.41;4221956;27;5736;-75
2022/07/07 14:49:57;;;;;;;;;;;;;;;27.38;35.04;97496.16;4226349;27;5656;-75
2022/07/07 14:52:06;;;;;;;;;;;;;;;27.39;34.95;97502.41;4231900;27;5616;-75
2022/07/07 14:54:10;;;;;;;;;;;;;;;27.38;34.96;97508.94;4234108;27;6117;-75
2022/07/07 14:56:14;;;;;;;;;;;;;;;27.36;34.77;97513.84;4242230;27;5722;-75
2022/07/07 14:58:17;;;;;;;;;;;;;;;27.32;34.99;97497.31;4233103;28;5540;-74
2022/07/07 15:00:21;;;;;;;;;;;;;;;27.29;35.27;97503.28;4232989;28;5549;-74
2022/07/07 15:02:25;;;;;;;;;;;;;;;27.27;35.01;97506.28;4233045;27;5611;-74
2022/07/07 15:04:28;;;;;;;;;;;;;;;27.26;35.11;97512.81;4251261;27;6448;-75
2022/07/07 15:06:33;;;;;;;;;;;;;;;27.26;34.86;97495.72;4233245;28;5541;-75
2022/07/07 15:08:37;;;;;;;;;;;;;;;27.25;35.02;97496.81;4251627;27;5799;-75
2022/07/07 15:10:41;;;;;;;;;;;;;;;27.22;34.96;97509.06;4251401;27;5703;-74
2022/07/07 15:12:44;;;;;;;;;;;;;;;27.21;35.01;97498.50;4233033;28;5521;-73
2022/07/07 15:14:49;;;;;;;;;;;;;;;27.22;34.66;97502.81;4250802;27;5594;-74
2022/07/07 15:16:53;;;;;;;;;;;;;;;27.25;34.74;97508.50;4251671;27;5603;-74
2022/07/07 15:18:56;;;;;;;;;;;;;;;27.30;34.88;97499.50;4229948;28;5541;-74
2022/07/07 15:21:06;;;;;;;;;;;;;;;27.31;34.83;97500.31;4234200;28;5604;-74
2022/07/07 15:23:09;;;;;;;;;;;;;;;27.30;34.55;97501.41;4234209;28;5684;-74
2022/07/07 15:25:14;;;;;;;;;;;;;;;27.31;34.63;97514.69;4233953;27;5627;-76
2022/07/07 15:27:18;;;;;;;;;;;;;;;27.30;34.84;97510.38;4217038;27;5638;-76
2022/07/07 15:29:21;;;;;;;;;;;;;;;27.30;34.86;97509.56;4246844;27;5606;-76
2022/07/07 15:31:24;;;;;;;;;;;;;;;27.31;34.83;97522.84;4230305;27;5525;-76
2022/07/07 15:33:28;;;;;;;;;;;;;;;27.28;34.45;97523.38;4250842;27;5672;-75
2022/07/07 15:35:32;;;;;;;;;;;;;;;27.25;34.79;97519.34;4242591;27;5609;-76
2022/07/07 15:37:35;;;;;;;;;;;;;;;27.27;34.83;97522.59;4233472;27;5806;-75
2022/07/07 15:39:39;;;;;;;;;;;;;;;27.34;34.39;97516.03;4244743;27;5597;-75
2022/07/07 15:41:42;;;;;;;;;;;;;;;27.38;34.78;97517.06;4236507;27;5597;-75
2022/07/07 15:43:48;;;;;;;;;;;;;;;27.34;34.43;97505.19;4238856;27;5617;-75
2022/07/07 15:45:51;;;;;;;;;;;;;;;27.37;34.59;97516.28;4243214;27;5594;-75
2022/07/07 15:47:54;;;;;;;;;;;;;;;27.36;34.39;97519.28;4230402;27;5564;-75
2022/07/07 15:50:08;;;;;;;;;;;;;;;27.35;34.38;97515.75;4219179;27;5531;-76
2022/07/07 15:52:11;;;;;;;;;;;;;;;27.36;34.27;97519.28;4231138;28;5650;-76
2022/07/07 15:54:15;;;;;;;;;;;;;;;27.38;34.40;97531.47;4242933;27;5752;-75
2022/07/07 15:56:18;;;;;;;;;;;;;;;27.35;34.18;97523.88;4240746;27;5721;-75
2022/07/07 15:58:21;;;;;;;;;;;;;;;27.30;34.48;97510.38;4226814;27;5726;-75
2022/07/07 16:00:26;;;;;;;;;;;;;;;27.31;34.43;97514.69;4245619;27;5792;-74
2022/07/07 16:02:29;;;;;;;;;;;;;;;27.30;34.22;97525.84;4245606;27;5742;-75
2022/07/07 16:04:36;;;;;;;;;;;;;;;27.24;34.04;97527.78;4245214;27;6377;-74
2022/07/07 16:06:40;;;;;;;;;;;;;;;27.24;34.12;97516.91;4244701;27;5711;-74
2022/07/07 16:08:43;;;;;;;;;;;;;;;27.27;34.20;97519.88;4246720;27;5786;-74
2022/07/07 16:10:46;;;;;;;;;;;;;;;27.30;34.09;97517.72;4243961;27;5677;-74
2022/07/07 16:12:49;;;;;;;;;;;;;;;27.27;34.35;97519.06;4247394;27;5684;-74
2022/07/07 16:14:54;;;;;;;;;;;;;;;27.28;34.29;97518.78;4241979;27;5705;-74
2022/07/07 16:17:00;;;;;;;;;;;;;;;27.26;34.49;97520.97;4235831;27;5683;-73
2022/07/07 16:19:03;;;;;;;;;;;;;;;27.23;34.12;97515.31;4224184;27;5748;-74
2022/07/07 16:21:07;;;;;;;;;;;;;;;27.21;34.28;97523.72;4230379;27;5718;-73
2022/07/07 16:23:09;;;;;;;;;;;;;;;27.14;34.41;97523.22;4248039;27;5689;-74
2022/07/07 16:25:12;;;;;;;;;;;;;;;27.07;34.44;97520.03;4248292;27;5102;-74
2022/07/07 16:27:15;;;;;;;;;;;;;;;27.03;34.35;97535.25;4247033;27;5689;-75
2022/07/07 16:29:19;;;;;;;;;;;;;;;26.92;34.40;97531.75;4244781;27;5685;-74
2022/07/07 16:31:24;;;;;;;;;;;;;;;26.90;34.35;97514.94;4247264;27;5723;-74
2022/07/07 16:33:29;;;;;;;;;;;;;;;26.93;34.30;97524.41;4247142;27;5684;-74
2022/07/07 16:35:33;;;;;;;;;;;;;;;26.95;34.11;97519.50;4249175;27;5601;-74
2022/07/07 16:37:41;;;;;;;;;;;;;;;26.94;34.26;97518.69;4238407;27;5703;-74
2022/07/07 16:39:44;;;;;;;;;;;;;;;26.92;34.39;97525.50;4245209;27;5689;-75
2022/07/07 16:41:47;;;;;;;;;;;;;;;26.81;34.77;97532.09;4246723;27;5693;-75
2022/07/07 16:43:51;;;;;;;;;;;;;;;26.76;34.49;97521.28;4249454;27;5826;-75
2022/07/07 16:45:54;;;;;;;;;;;;;;;26.73;34.75;97527.22;4247158;27;6414;-78
2022/07/07 16:48:00;;;;;;;;;;;;;;;26.67;35.00;97511.00;4232288;27;5623;-78
2022/07/07 16:50:05;;;;;;;;;;;;;;;26.74;34.99;97534.31;4250117;27;5803;-79
2022/07/07 16:52:09;;;;;;;;;;;;;;;26.64;35.24;97519.69;4249838;27;5684;-79
2022/07/07 16:54:16;;;;;;;;;;;;;;;26.55;35.35;97534.91;4246581;27;6511;-84
2022/07/07 16:56:19;;;;;;;;;;;;;;;26.44;35.30;97530.63;4250789;27;5700;-79
2022/07/07 16:58:22;;;;;;;;;;;;;;;26.33;35.37;97529.81;4246818;27;5685;-77
2022/07/07 17:00:25;;;;;;;;;;;;;;;26.32;35.70;97535.53;4250673;27;5733;-78
2022/07/07 17:02:28;;;;;;;;;;;;;;;26.34;35.39;97536.06;4241959;27;5732;-80
2022/07/07 17:04:33;;;;;;;;;;;;;;;26.36;35.48;97550.13;4240298;27;5728;-79
2022/07/07 17:06:38;;;;;;;;;;;;;;;26.31;35.73;97533.91;4224932;27;5733;-78
2022/07/07 17:08:41;;;;;;;;;;;;;;;26.27;35.60;97544.47;4247003;27;5755;-80
2022/07/07 17:10:48;;;;;;;;;;;;;;;26.27;35.87;97546.38;4250816;27;5673;-80
2022/07/07 17:12:51;;;;;;;;;;;;;;;26.27;35.66;97541.75;4250569;27;5700;-86
2022/07/07 17:14:54;;;;;;;;;;;;;;;26.20;35.97;97545.88;4248991;27;5677;-85
2022/07/07 17:16:58;;;;;;;;;;;;;;;26.11;35.92;97549.13;4248738;27;5775;-78
2022/07/07 17:19:02;;;;;;;;;;;;;;;26.05;36.33;97539.41;4229471;28;5851;-77
2022/07/07 17:21:08;;;;;;;;;;;;;;;26.07;36.06;97537.22;4243585;27;5703;-77
2022/07/07 17:23:14;;;;;;;;;;;;;;;26.11;36.18;97548.31;4243693;27;5732;-77
2022/07/07 17:25:17;;;;;;;;;;;;;;;26.12;36.41;97548.03;4245771;27;5689;-77
2022/07/07 17:27:21;;;;;;;;;;;;;;;26.15;36.08;97543.16;4245836;27;6450;-76
2022/07/07 17:29:24;;;;;;;;;;;;;;;26.15;36.26;97529.59;4220233;27;5661;-76
2022/07/07 17:31:28;;;;;;;;;;;;;;;26.17;36.17;97535.59;4242003;27;5803;-75
2022/07/07 17:33:31;;;;;;;;;;;;;;;26.27;36.18;97540.94;4245789;27;5074;-75
2022/07/07 17:35:34;;;;;;;;;;;;;;;26.32;36.18;97546.38;4241048;27;5777;-75
2022/07/07 17:37:37;;;;;;;;;;;;;;;26.31;36.45;97537.44;4250186;27;5594;-75
2022/07/07 17:39:42;;;;;;;;;;;;;;;26.33;36.44;97540.66;4241649;27;5615;-73
2022/07/07 17:41:48;;;;;;;;;;;;;;;26.26;36.33;97539.31;4241905;27;5601;-83
2022/07/07 17:43:52;;;;;;;;;;;;;;;26.28;36.30;97535.28;4244074;27;5583;-83
2022/07/07 17:45:58;;;;;;;;;;;;;;;26.35;36.17;97541.19;4246176;27;5680;-83
2022/07/07 17:48:03;;;;;;;;;;;;;;;26.45;36.46;97528.72;4217613;27;5615;-82
2022/07/07 17:50:08;;;;;;;;;;;;;;;26.55;36.09;97536.81;4235875;28;5632;-78
2022/07/07 17:52:11;;;;;;;;;;;;;;;26.45;36.39;97532.25;4227396;28;5622;-77
2022/07/07 17:54:15;;;;;;;;;;;;;;;26.42;36.34;97543.66;4251589;27;5606;-79
2022/07/07 17:56:20;;;;;;;;;;;;;;;26.40;36.59;97535.81;4242625;27;5691;-79
2022/07/07 17:58:23;;;;;;;;;;;;;;;26.39;36.54;97545.03;4232081;27;5512;-80
2022/07/07 18:00:27;;;;;;;;;;;;;;;26.30;36.65;97540.41;4250289;27;5582;-85
2022/07/07 18:02:30;;;;;;;;;;;;;;;26.19;36.29;97539.63;4246397;27;5616;-84
2022/07/07 18:04:35;;;;;;;;;;;;;;;26.22;36.64;97530.94;4252120;27;5720;-86
2022/07/07 18:06:38;;;;;;;;;;;;;;;26.25;36.83;97535.00;4233438;28;5521;-83
2022/07/07 18:08:45;;;;;;;;;;;;;;;26.22;36.44;97530.13;4233617;27;5157;-81
2022/07/07 18:10:48;;;;;;;;;;;;;;;26.22;36.91;97540.97;4249794;27;5582;-74
2022/07/07 18:12:52;;;;;;;;;;;;;;;26.26;36.95;97550.16;4227512;27;5868;-73
2022/07/07 18:14:55;;;;;;;;;;;;;;;26.22;36.97;97544.50;4248424;27;5590;-75
2022/07/07 18:16:58;;;;;;;;;;;;;;;26.09;36.97;97540.47;4248786;27;5756;-73
2022/07/07 18:19:01;;;;;;;;;;;;;;;25.99;37.19;97547.81;4248493;27;5582;-77
2022/07/07 18:21:05;;;;;;;;;;;;;;;25.97;37.23;97550.78;4250842;27;5590;-73
2022/07/07 18:23:08;;;;;;;;;;;;;;;26.00;36.93;97558.34;4246560;27;5594;-76
2022/07/07 18:25:15;;;;;;;;;;;;;;;26.01;37.35;97565.41;4247600;27;5713;-74
2022/07/07 18:27:17;;;;;;;;;;;;;;;25.97;36.92;97568.94;4249225;27;5622;-75
2022/07/07 18:29:22;;;;;;;;;;;;;;;25.96;37.02;97559.19;4251893;27;5715;-75
2022/07/07 18:31:25;;;;;;;;;;;;;;;25.95;37.35;97566.50;4252178;27;5563;-75
2022/07/07 18:33:28;;;;;;;;;;;;;;;25.91;37.34;97576.25;4234589;28;5545;-75
2022/07/07 18:35:32;;;;;;;;;;;;;;;25.94;36.93;97570.31;4251891;27;5637;-74
2022/07/07 18:37:35;;;;;;;;;;;;;;;25.93;37.17;97574.06;4251769;27;5842;-75
2022/07/07 18:39:38;;;;;;;;;;;;;;;25.88;36.94;97570.56;4228809;27;5782;-75
2022/07/07 18:41:42;;;;;;;;;;;;;;;25.86;37.33;97573.56;4250274;27;5625;-75
2022/07/07 18:43:45;;;;;;;;;;;;;;;25.87;37.36;97580.59;4247540;27;5610;-75